Time;durP1;ratioP1;P1;durP2;ratioP2;P2;SDS_P1;SDS_P2;PMS_P1;PMS_P2;Temp;Humidity;BMP_temperature;BMP_pressure;BME280_temperature;BME280_humidity;BME280_pressure;Samples;Min_cycle;Max_cycle;Signal;HPM_P1;HPM_P2
2021/03/10 00:00:28;;;;;;;;;;;23.00;33.70;;;;;;1536476;75;749;-63
2021/03/10 00:02:30;;;;;;;;;;;23.00;33.80;;;;;;1541523;75;824;-64
2021/03/10 00:04:32;;;;;;;;;;;23.00;33.80;;;;;;1539571;75;771;-64
2021/03/10 00:06:34;;;;;;;;;;;23.00;33.90;;;;;;1533474;75;717;-64
2021/03/10 00:08:36;;;;;;;;;;;23.00;33.90;;;;;;1536003;75;1098;-63
2021/03/10 00:10:38;;;;;;;;;;;23.00;33.70;;;;;;1544531;75;841;-64
2021/03/10 00:12:40;;;;;;;;;;;23.00;33.80;;;;;;1537846;76;716;-64
2021/03/10 00:14:42;;;;;;;;;;;22.90;33.90;;;;;;1537646;75;747;-62
2021/03/10 00:16:44;;;;;;;;;;;23.00;33.80;;;;;;1547513;75;1943;-65
2021/03/10 00:18:46;;;;;;;;;;;22.90;33.70;;;;;;1528858;75;741;-64
2021/03/10 00:20:48;;;;;;;;;;;22.90;33.80;;;;;;1542305;75;788;-63
2021/03/10 00:22:49;;;;;;;;;;;22.90;33.70;;;;;;1535671;75;789;-64
2021/03/10 00:24:51;;;;;;;;;;;22.90;33.70;;;;;;1544510;76;845;-63
2021/03/10 00:26:53;;;;;;;;;;;22.90;33.60;;;;;;1540617;75;1203;-63
2021/03/10 00:28:55;;;;;;;;;;;22.90;33.60;;;;;;1516299;75;721;-64
2021/03/10 00:30:57;;;;;;;;;;;22.90;33.70;;;;;;1544024;75;800;-65
2021/03/10 00:32:59;;;;;;;;;;;22.90;33.60;;;;;;1539903;75;773;-64
2021/03/10 00:35:02;;;;;;;;;;;22.90;33.50;;;;;;1546078;75;776;-64
2021/03/10 00:37:04;;;;;;;;;;;23.00;33.50;;;;;;1545193;75;1919;-64
2021/03/10 00:39:06;;;;;;;;;;;23.00;33.30;;;;;;1544622;75;611;-64
2021/03/10 00:41:08;;;;;;;;;;;22.90;33.40;;;;;;1546657;75;786;-64
2021/03/10 00:43:10;;;;;;;;;;;23.00;33.40;;;;;;1534189;75;760;-64
2021/03/10 00:45:12;;;;;;;;;;;22.90;33.40;;;;;;1545421;75;740;-63
2021/03/10 00:47:14;;;;;;;;;;;22.90;33.40;;;;;;1536682;75;1172;-66
2021/03/10 00:49:16;;;;;;;;;;;22.90;33.50;;;;;;1539637;75;723;-64
2021/03/10 00:51:17;;;;;;;;;;;22.90;33.60;;;;;;1530871;75;805;-64
2021/03/10 00:53:19;;;;;;;;;;;22.90;33.60;;;;;;1546945;75;826;-64
2021/03/10 00:55:21;;;;;;;;;;;23.00;33.60;;;;;;1546149;75;783;-63
2021/03/10 00:57:23;;;;;;;;;;;22.90;33.60;;;;;;1546976;75;1895;-64
2021/03/10 00:59:25;;;;;;;;;;;22.90;33.60;;;;;;1542944;75;829;-63
2021/03/10 01:01:27;;;;;;;;;;;22.90;33.70;;;;;;1543988;75;897;-64
2021/03/10 01:03:29;;;;;;;;;;;22.90;33.70;;;;;;1541771;75;723;-64
2021/03/10 01:05:31;;;;;;;;;;;23.00;33.70;;;;;;1540592;75;804;-64
2021/03/10 01:07:33;;;;;;;;;;;22.90;33.80;;;;;;1547469;75;1115;-64
2021/03/10 01:09:35;;;;;;;;;;;22.90;33.80;;;;;;1547449;75;781;-64
2021/03/10 01:11:36;;;;;;;;;;;22.90;33.90;;;;;;1538780;75;767;-64
2021/03/10 01:13:38;;;;;;;;;;;23.00;33.70;;;;;;1539572;75;727;-64
2021/03/10 01:15:40;;;;;;;;;;;23.00;33.60;;;;;;1543817;75;792;-64
2021/03/10 01:17:42;;;;;;;;;;;23.00;33.60;;;;;;1547040;75;1998;-64
2021/03/10 01:19:44;;;;;;;;;;;23.00;33.60;;;;;;1537806;75;812;-65
2021/03/10 01:21:46;;;;;;;;;;;23.00;33.60;;;;;;1549523;75;805;-64
2021/03/10 01:23:48;;;;;;;;;;;23.10;33.80;;;;;;1542869;75;784;-64
2021/03/10 01:25:49;;;;;;;;;;;23.00;33.80;;;;;;1549548;75;865;-63
2021/03/10 01:27:52;;;;;;;;;;;23.00;33.90;;;;;;1531059;75;1229;-64
2021/03/10 01:29:54;;;;;;;;;;;23.00;34.00;;;;;;1540301;75;762;-64
2021/03/10 01:31:55;;;;;;;;;;;23.00;33.90;;;;;;1536600;75;1128;-64
2021/03/10 01:33:57;;;;;;;;;;;23.00;33.90;;;;;;1545153;75;707;-64
2021/03/10 01:35:59;;;;;;;;;;;23.00;33.80;;;;;;1536972;75;1931;-64
2021/03/10 01:38:01;;;;;;;;;;;23.00;33.70;;;;;;1536031;75;1167;-65
2021/03/10 01:40:07;;;;;;;;;;;22.90;33.90;;;;;;1523862;75;791;-63
2021/03/10 01:42:09;;;;;;;;;;;22.90;34.00;;;;;;1537540;75;1783;-65
2021/03/10 01:44:13;;;;;;;;;;;22.90;34.00;;;;;;1538596;75;723;-64
2021/03/10 01:46:15;;;;;;;;;;;22.90;34.10;;;;;;1547327;75;1929;-63
2021/03/10 01:48:17;;;;;;;;;;;22.90;34.00;;;;;;1529902;75;1166;-63
2021/03/10 01:50:19;;;;;;;;;;;22.90;33.90;;;;;;1533123;75;807;-63
2021/03/10 01:52:20;;;;;;;;;;;22.90;33.90;;;;;;1521969;75;745;-64
2021/03/10 01:54:22;;;;;;;;;;;22.90;33.90;;;;;;1544706;77;676;-63
2021/03/10 01:56:26;;;;;;;;;;;22.90;33.90;;;;;;1531400;75;1927;-64
2021/03/10 01:58:28;;;;;;;;;;;22.90;33.90;;;;;;1543559;75;1139;-63
2021/03/10 02:00:29;;;;;;;;;;;22.90;34.10;;;;;;1519866;75;811;-65
2021/03/10 02:02:31;;;;;;;;;;;22.90;34.10;;;;;;1542077;75;764;-66
2021/03/10 02:04:33;;;;;;;;;;;22.90;34.10;;;;;;1532120;75;669;-63
2021/03/10 02:06:46;;;;;;;;;;;23.00;34.20;;;;;;1502005;77;1164;-63
2021/03/10 02:08:52;;;;;;;;;;;23.10;34.40;;;;;;1545952;75;727;-66
2021/03/10 02:11:12;;;;;;;;;;;23.00;34.20;;;;;;1530530;75;769;-64
2021/03/10 02:13:32;;;;;;;;;;;23.10;34.30;;;;;;1546663;75;715;-64
2021/03/10 02:15:41;;;;;;;;;;;23.10;34.20;;;;;;1542139;75;720;-64
2021/03/10 02:17:45;;;;;;;;;;;23.10;34.30;;;;;;1540260;75;1944;-66
2021/03/10 02:19:57;;;;;;;;;;;23.00;34.10;;;;;;1533768;75;820;-64
2021/03/10 02:22:07;;;;;;;;;;;23.00;34.20;;;;;;1529189;75;767;-64
2021/03/10 02:24:16;;;;;;;;;;;23.00;34.00;;;;;;1543629;75;1831;-64
2021/03/10 02:26:20;;;;;;;;;;;23.10;34.00;;;;;;1531444;75;1887;-64
2021/03/10 02:28:22;;;;;;;;;;;23.10;34.00;;;;;;1537988;75;1816;-65
2021/03/10 02:30:25;;;;;;;;;;;23.10;34.00;;;;;;1519913;75;723;-64
2021/03/10 02:32:27;;;;;;;;;;;23.10;33.90;;;;;;1546683;75;1897;-64
2021/03/10 02:34:29;;;;;;;;;;;23.20;33.90;;;;;;1547499;75;784;-64
2021/03/10 02:36:31;;;;;;;;;;;23.10;33.90;;;;;;1546581;75;1936;-65
2021/03/10 02:38:33;;;;;;;;;;;23.10;34.00;;;;;;1547494;75;1093;-66
2021/03/10 02:40:35;;;;;;;;;;;23.10;34.10;;;;;;1543792;75;797;-63
2021/03/10 02:42:37;;;;;;;;;;;23.10;34.20;;;;;;1504993;77;845;-63
2021/03/10 02:44:38;;;;;;;;;;;23.10;34.00;;;;;;1543618;75;730;-65
2021/03/10 02:46:41;;;;;;;;;;;23.10;34.00;;;;;;1547305;75;928;-63
2021/03/10 02:48:43;;;;;;;;;;;23.10;34.20;;;;;;1539330;75;1131;-64
2021/03/10 02:50:45;;;;;;;;;;;23.10;34.20;;;;;;1537901;75;805;-61
2021/03/10 02:52:47;;;;;;;;;;;23.10;34.20;;;;;;1534482;75;727;-63
2021/03/10 02:54:49;;;;;;;;;;;23.10;34.20;;;;;;1531356;75;842;-64
2021/03/10 02:56:51;;;;;;;;;;;23.10;34.40;;;;;;1534831;75;1946;-63
2021/03/10 02:58:52;;;;;;;;;;;23.10;34.30;;;;;;1540487;75;757;-65
2021/03/10 03:00:54;;;;;;;;;;;23.10;34.30;;;;;;1548743;75;784;-65
2021/03/10 03:02:56;;;;;;;;;;;23.10;34.40;;;;;;1534735;75;747;-66
2021/03/10 03:04:58;;;;;;;;;;;23.20;34.40;;;;;;1540880;75;675;-64
2021/03/10 03:07:00;;;;;;;;;;;23.10;34.40;;;;;;1540311;75;1156;-63
2021/03/10 03:09:02;;;;;;;;;;;23.10;34.40;;;;;;1545002;75;684;-63
2021/03/10 03:11:04;;;;;;;;;;;23.20;34.40;;;;;;1527527;75;737;-63
2021/03/10 03:13:07;;;;;;;;;;;23.10;34.60;;;;;;1536360;75;880;-63
2021/03/10 03:15:09;;;;;;;;;;;23.10;34.70;;;;;;1544274;75;744;-65
2021/03/10 03:17:11;;;;;;;;;;;23.10;34.70;;;;;;1533925;75;1940;-63
2021/03/10 03:19:13;;;;;;;;;;;23.10;34.80;;;;;;1542952;75;648;-64
2021/03/10 03:21:15;;;;;;;;;;;23.10;34.70;;;;;;1544181;75;785;-63
2021/03/10 03:23:19;;;;;;;;;;;23.10;34.70;;;;;;1538612;75;665;-63
2021/03/10 03:25:22;;;;;;;;;;;23.10;34.60;;;;;;1542825;75;766;-63
2021/03/10 03:27:27;;;;;;;;;;;23.10;34.50;;;;;;1530157;75;1175;-64
2021/03/10 03:29:28;;;;;;;;;;;23.00;34.50;;;;;;1546201;75;784;-64
2021/03/10 03:31:31;;;;;;;;;;;23.00;34.50;;;;;;1541327;75;780;-63
2021/03/10 03:33:33;;;;;;;;;;;23.00;34.50;;;;;;1531625;75;673;-63
2021/03/10 03:35:35;;;;;;;;;;;23.00;34.50;;;;;;1535276;75;903;-63
2021/03/10 03:37:37;;;;;;;;;;;23.00;34.60;;;;;;1534979;75;1947;-63
2021/03/10 03:39:39;;;;;;;;;;;22.90;34.70;;;;;;1533316;75;792;-63
2021/03/10 03:41:41;;;;;;;;;;;23.00;34.80;;;;;;1536148;75;804;-63
2021/03/10 03:43:43;;;;;;;;;;;22.90;34.90;;;;;;1541712;75;745;-64
2021/03/10 03:45:45;;;;;;;;;;;22.80;34.70;;;;;;1535536;75;728;-66
2021/03/10 03:47:56;;;;;;;;;;;22.90;34.90;;;;;;1534148;75;1130;-62
2021/03/10 03:49:58;;;;;;;;;;;22.90;34.90;;;;;;1530853;75;819;-65
2021/03/10 03:52:00;;;;;;;;;;;22.90;34.90;;;;;;1523857;75;698;-64
2021/03/10 03:54:05;;;;;;;;;;;22.90;35.00;;;;;;1540989;75;686;-64
2021/03/10 03:56:07;;;;;;;;;;;22.90;35.00;;;;;;1537740;75;708;-65
2021/03/10 03:58:09;;;;;;;;;;;22.90;34.90;;;;;;1543584;75;1945;-65
2021/03/10 04:00:14;;;;;;;;;;;22.90;34.70;;;;;;1541894;75;764;-65
2021/03/10 04:02:16;;;;;;;;;;;22.90;34.90;;;;;;1541975;77;2032;-66
2021/03/10 04:04:18;;;;;;;;;;;22.90;35.00;;;;;;1547089;75;747;-65
2021/03/10 04:06:20;;;;;;;;;;;22.90;34.90;;;;;;1542243;75;761;-64
2021/03/10 04:08:21;;;;;;;;;;;23.00;34.90;;;;;;1544954;75;1123;-67
2021/03/10 04:10:25;;;;;;;;;;;22.90;34.80;;;;;;1544706;75;775;-64
2021/03/10 04:12:27;;;;;;;;;;;23.00;34.90;;;;;;1546250;75;1840;-64
2021/03/10 04:14:29;;;;;;;;;;;23.00;34.70;;;;;;1546538;75;761;-66
2021/03/10 04:16:31;;;;;;;;;;;22.90;34.80;;;;;;1547224;75;924;-66
2021/03/10 04:18:32;;;;;;;;;;;23.00;34.80;;;;;;1543063;75;1969;-63
2021/03/10 04:20:34;;;;;;;;;;;22.90;34.70;;;;;;1544564;75;734;-65
2021/03/10 04:22:36;;;;;;;;;;;23.00;34.70;;;;;;1546770;75;776;-63
2021/03/10 04:24:38;;;;;;;;;;;23.00;34.70;;;;;;1545506;75;751;-64
2021/03/10 04:26:40;;;;;;;;;;;23.00;34.90;;;;;;1543029;75;809;-63
2021/03/10 04:28:42;;;;;;;;;;;23.00;35.00;;;;;;1533704;75;1188;-64
2021/03/10 04:30:44;;;;;;;;;;;23.00;35.00;;;;;;1532684;75;788;-64
2021/03/10 04:32:45;;;;;;;;;;;23.00;34.90;;;;;;1539633;75;740;-62
2021/03/10 04:34:47;;;;;;;;;;;23.00;34.90;;;;;;1547126;75;774;-63
2021/03/10 04:36:49;;;;;;;;;;;23.00;34.80;;;;;;1545719;75;1122;-63
2021/03/10 04:38:51;;;;;;;;;;;23.00;34.70;;;;;;1545978;75;1920;-64
2021/03/10 04:40:53;;;;;;;;;;;23.10;35.00;;;;;;1547604;75;713;-64
2021/03/10 04:42:55;;;;;;;;;;;23.10;34.90;;;;;;1539822;75;756;-62
2021/03/10 04:44:57;;;;;;;;;;;23.00;34.90;;;;;;1542156;75;628;-64
2021/03/10 04:46:58;;;;;;;;;;;23.00;34.80;;;;;;1546160;75;1171;-65
2021/03/10 04:49:00;;;;;;;;;;;23.20;34.90;;;;;;1547191;75;774;-63
2021/03/10 04:51:02;;;;;;;;;;;23.10;34.90;;;;;;1541554;75;800;-64
2021/03/10 04:53:04;;;;;;;;;;;23.00;34.70;;;;;;1543191;75;807;-63
2021/03/10 04:55:06;;;;;;;;;;;23.00;34.70;;;;;;1545393;75;775;-63
2021/03/10 04:57:08;;;;;;;;;;;23.00;34.70;;;;;;1546372;75;1948;-61
2021/03/10 04:59:10;;;;;;;;;;;23.00;34.60;;;;;;1544682;75;903;-63
2021/03/10 05:01:12;;;;;;;;;;;23.10;34.80;;;;;;1546974;75;792;-63
2021/03/10 05:03:14;;;;;;;;;;;23.00;34.70;;;;;;1546833;75;669;-63
2021/03/10 05:05:16;;;;;;;;;;;23.10;34.80;;;;;;1544671;75;808;-65
2021/03/10 05:07:18;;;;;;;;;;;23.00;34.70;;;;;;1546835;75;1136;-63
2021/03/10 05:09:19;;;;;;;;;;;23.10;34.80;;;;;;1546433;75;790;-64
2021/03/10 05:11:21;;;;;;;;;;;23.00;34.70;;;;;;1544591;75;741;-62
2021/03/10 05:13:23;;;;;;;;;;;23.00;34.60;;;;;;1545851;75;783;-63
2021/03/10 05:15:25;;;;;;;;;;;23.00;34.60;;;;;;1546598;75;786;-62
2021/03/10 05:17:27;;;;;;;;;;;23.00;34.60;;;;;;1546118;75;1955;-63
2021/03/10 05:19:29;;;;;;;;;;;23.00;34.60;;;;;;1540107;75;825;-64
2021/03/10 05:21:31;;;;;;;;;;;23.00;34.70;;;;;;1544832;75;783;-66
2021/03/10 05:23:33;;;;;;;;;;;23.00;34.60;;;;;;1546767;75;812;-63
2021/03/10 05:25:34;;;;;;;;;;;23.00;34.70;;;;;;1546998;75;796;-63
2021/03/10 05:27:36;;;;;;;;;;;23.00;34.50;;;;;;1544065;75;1156;-62
2021/03/10 05:29:38;;;;;;;;;;;23.00;34.60;;;;;;1541574;75;756;-62
2021/03/10 05:31:40;;;;;;;;;;;23.10;34.70;;;;;;1542176;75;734;-64
2021/03/10 05:33:42;;;;;;;;;;;23.00;34.50;;;;;;1544041;75;710;-63
2021/03/10 05:35:44;;;;;;;;;;;23.00;34.60;;;;;;1545181;75;743;-63
2021/03/10 05:37:46;;;;;;;;;;;23.00;34.60;;;;;;1546760;75;1951;-63
2021/03/10 05:39:47;;;;;;;;;;;23.00;34.60;;;;;;1545578;75;836;-63
2021/03/10 05:41:49;;;;;;;;;;;23.10;34.70;;;;;;1536699;75;792;-64
2021/03/10 05:43:51;;;;;;;;;;;23.00;34.50;;;;;;1546866;75;1010;-64
2021/03/10 05:45:53;;;;;;;;;;;23.00;34.50;;;;;;1541328;75;783;-63
2021/03/10 05:47:55;;;;;;;;;;;23.00;34.50;;;;;;1542456;75;1118;-61
2021/03/10 05:49:57;;;;;;;;;;;23.10;34.70;;;;;;1547211;75;718;-64
2021/03/10 05:51:59;;;;;;;;;;;23.10;34.70;;;;;;1543487;75;686;-63
2021/03/10 05:54:01;;;;;;;;;;;23.10;34.80;;;;;;1547280;75;807;-65
2021/03/10 05:56:03;;;;;;;;;;;23.10;35.10;;;;;;1545459;75;769;-64
2021/03/10 05:58:06;;;;;;;;;;;23.10;35.00;;;;;;1542746;75;1952;-63
2021/03/10 06:00:10;;;;;;;;;;;23.20;34.80;;;;;;1544790;75;1803;-60
2021/03/10 06:02:11;;;;;;;;;;;23.20;34.80;;;;;;1526672;75;712;-63
2021/03/10 06:04:13;;;;;;;;;;;23.20;34.70;;;;;;1547487;75;800;-65
2021/03/10 06:06:15;;;;;;;;;;;23.20;34.60;;;;;;1547274;75;801;-63
2021/03/10 06:08:17;;;;;;;;;;;23.20;34.60;;;;;;1539909;75;1153;-63
2021/03/10 06:10:20;;;;;;;;;;;23.20;34.60;;;;;;1534491;75;834;-63
2021/03/10 06:12:22;;;;;;;;;;;23.20;34.60;;;;;;1531844;75;787;-63
2021/03/10 06:14:24;;;;;;;;;;;23.20;34.60;;;;;;1531269;75;726;-65
2021/03/10 06:16:26;;;;;;;;;;;23.20;34.70;;;;;;1544479;75;797;-66
2021/03/10 06:18:30;;;;;;;;;;;23.20;34.60;;;;;;1545164;75;1929;-63
2021/03/10 06:20:32;;;;;;;;;;;23.20;34.70;;;;;;1536413;75;710;-63
2021/03/10 06:22:34;;;;;;;;;;;23.20;34.70;;;;;;1545095;75;742;-62
2021/03/10 06:24:36;;;;;;;;;;;23.20;34.70;;;;;;1544859;75;705;-63
2021/03/10 06:26:38;;;;;;;;;;;23.20;34.50;;;;;;1545244;75;795;-63
2021/03/10 06:28:40;;;;;;;;;;;23.20;34.70;;;;;;1544940;75;1179;-62
2021/03/10 06:30:43;;;;;;;;;;;23.20;34.80;;;;;;1546877;75;782;-69
2021/03/10 06:32:45;;;;;;;;;;;23.30;35.00;;;;;;1539436;75;833;-70
2021/03/10 06:34:50;;;;;;;;;;;23.20;35.00;;;;;;1549033;75;731;-70
2021/03/10 06:36:52;;;;;;;;;;;23.20;34.50;;;;;;1542320;75;1192;-68
2021/03/10 06:38:54;;;;;;;;;;;23.30;34.10;;;;;;1539828;75;1919;-68
2021/03/10 06:40:59;;;;;;;;;;;23.20;34.30;;;;;;1544842;77;793;-68
2021/03/10 06:43:01;;;;;;;;;;;23.30;34.30;;;;;;1540804;75;740;-68
2021/03/10 06:45:03;;;;;;;;;;;23.20;34.20;;;;;;1545591;75;785;-69
2021/03/10 06:47:06;;;;;;;;;;;23.30;34.20;;;;;;1542281;75;1161;-69
2021/03/10 06:49:07;;;;;;;;;;;23.30;34.10;;;;;;1537064;75;779;-69
2021/03/10 06:51:13;;;;;;;;;;;23.30;33.90;;;;;;1540188;75;672;-69
2021/03/10 06:53:15;;;;;;;;;;;23.20;33.40;;;;;;1539376;75;779;-69
2021/03/10 06:55:17;;;;;;;;;;;23.20;33.30;;;;;;1540145;76;802;-69
2021/03/10 06:57:19;;;;;;;;;;;23.20;33.10;;;;;;1545667;75;1088;-71
2021/03/10 06:59:21;;;;;;;;;;;23.20;33.10;;;;;;1543417;75;1948;-67
2021/03/10 07:01:24;;;;;;;;;;;23.30;33.30;;;;;;1543661;75;804;-68
2021/03/10 07:03:26;;;;;;;;;;;23.40;33.30;;;;;;1545068;75;731;-71
2021/03/10 07:05:29;;;;;;;;;;;23.50;33.60;;;;;;1543105;75;707;-70
2021/03/10 07:07:31;;;;;;;;;;;23.50;33.30;;;;;;1544868;75;1031;-67
2021/03/10 07:09:33;;;;;;;;;;;23.40;33.20;;;;;;1542900;75;789;-67
2021/03/10 07:11:35;;;;;;;;;;;23.50;33.30;;;;;;1542192;75;750;-69
2021/03/10 07:13:37;;;;;;;;;;;23.40;33.20;;;;;;1545183;75;699;-69
2021/03/10 07:15:39;;;;;;;;;;;23.40;32.90;;;;;;1538162;75;822;-69
2021/03/10 07:17:41;;;;;;;;;;;23.40;32.80;;;;;;1543055;75;1153;-70
2021/03/10 07:19:43;;;;;;;;;;;23.40;32.70;;;;;;1540571;76;1932;-70
2021/03/10 07:21:52;;;;;;;;;;;23.40;32.80;;;;;;1547386;75;788;-69
2021/03/10 07:23:54;;;;;;;;;;;23.40;32.50;;;;;;1547370;75;1803;-69
2021/03/10 07:25:56;;;;;;;;;;;23.40;32.40;;;;;;1547383;77;777;-67
2021/03/10 07:27:59;;;;;;;;;;;23.40;32.40;;;;;;1549085;75;1258;-68
2021/03/10 07:30:01;;;;;;;;;;;23.40;32.30;;;;;;1547943;76;1837;-69
2021/03/10 07:32:04;;;;;;;;;;;23.30;32.30;;;;;;1543309;75;800;-70
2021/03/10 07:34:06;;;;;;;;;;;23.30;32.20;;;;;;1541538;75;692;-70
2021/03/10 07:36:08;;;;;;;;;;;23.40;32.20;;;;;;1545455;75;768;-69
2021/03/10 07:38:10;;;;;;;;;;;23.30;32.20;;;;;;1533816;75;1955;-69
2021/03/10 07:40:12;;;;;;;;;;;23.20;32.00;;;;;;1532881;75;816;-69
2021/03/10 07:42:15;;;;;;;;;;;23.30;32.00;;;;;;1538476;75;1102;-70
2021/03/10 07:44:23;;;;;;;;;;;23.30;32.00;;;;;;1532667;75;763;-70
2021/03/10 07:46:29;;;;;;;;;;;23.30;32.10;;;;;;1533823;75;745;-68
2021/03/10 07:48:32;;;;;;;;;;;23.20;31.90;;;;;;1546092;75;1156;-70
2021/03/10 07:50:44;;;;;;;;;;;23.20;31.90;;;;;;1545624;75;757;-69
2021/03/10 07:52:52;;;;;;;;;;;23.10;31.90;;;;;;1544296;75;799;-66
2021/03/10 07:54:57;;;;;;;;;;;23.20;32.00;;;;;;1545584;75;731;-66
2021/03/10 07:57:11;;;;;;;;;;;23.20;31.20;;;;;;1547281;75;1080;-65
2021/03/10 07:59:15;;;;;;;;;;;23.30;31.10;;;;;;1546924;76;1935;-66
2021/03/10 08:01:17;;;;;;;;;;;23.20;30.80;;;;;;1544480;75;1878;-67
2021/03/10 08:03:32;;;;;;;;;;;23.20;30.50;;;;;;1545030;76;896;-65
2021/03/10 08:05:35;;;;;;;;;;;23.20;29.80;;;;;;1544743;75;818;-66
2021/03/10 08:07:36;;;;;;;;;;;23.20;30.20;;;;;;1543137;75;1199;-66
2021/03/10 08:09:40;;;;;;;;;;;23.10;29.90;;;;;;1547282;75;740;-66
2021/03/10 08:11:45;;;;;;;;;;;23.00;29.70;;;;;;1545102;75;1936;-66
2021/03/10 08:13:49;;;;;;;;;;;23.00;29.40;;;;;;1540318;75;674;-65
2021/03/10 08:15:52;;;;;;;;;;;23.10;29.50;;;;;;1543316;75;1647;-65
2021/03/10 08:18:04;;;;;;;;;;;23.00;29.30;;;;;;1539498;75;1842;-66
2021/03/10 08:20:06;;;;;;;;;;;22.90;28.80;;;;;;1546671;75;1918;-64
2021/03/10 08:22:08;;;;;;;;;;;22.90;29.00;;;;;;1546462;75;803;-67
2021/03/10 08:24:10;;;;;;;;;;;22.90;29.10;;;;;;1545384;75;768;-64
2021/03/10 08:26:12;;;;;;;;;;;22.80;28.70;;;;;;1546708;75;746;-64
2021/03/10 08:28:14;;;;;;;;;;;22.80;28.80;;;;;;1546266;75;1263;-65
2021/03/10 08:30:17;;;;;;;;;;;22.70;28.40;;;;;;1545077;75;788;-65
2021/03/10 08:32:23;;;;;;;;;;;22.70;28.60;;;;;;1546657;75;2041;-64
2021/03/10 08:34:32;;;;;;;;;;;22.60;28.40;;;;;;1541669;75;780;-65
2021/03/10 08:36:34;;;;;;;;;;;22.70;28.30;;;;;;1541694;75;752;-65
2021/03/10 08:38:35;;;;;;;;;;;22.60;28.20;;;;;;1547087;75;1932;-65
2021/03/10 08:40:37;;;;;;;;;;;22.70;28.20;;;;;;1547071;75;810;-66
2021/03/10 08:42:41;;;;;;;;;;;22.60;28.20;;;;;;1547315;75;818;-67
2021/03/10 08:44:44;;;;;;;;;;;22.50;28.20;;;;;;1535773;75;1926;-65
2021/03/10 08:46:46;;;;;;;;;;;22.50;28.10;;;;;;1532150;75;1125;-66
2021/03/10 08:48:48;;;;;;;;;;;22.40;27.90;;;;;;1547042;75;780;-66
2021/03/10 08:50:50;;;;;;;;;;;22.40;28.00;;;;;;1546486;75;792;-66
2021/03/10 08:52:52;;;;;;;;;;;22.40;28.00;;;;;;1541012;76;751;-66
2021/03/10 08:54:54;;;;;;;;;;;22.40;27.90;;;;;;1541145;75;718;-66
2021/03/10 08:56:56;;;;;;;;;;;22.40;27.80;;;;;;1543537;75;1156;-66
2021/03/10 08:58:58;;;;;;;;;;;22.30;27.80;;;;;;1545078;75;1927;-62
2021/03/10 09:01:00;;;;;;;;;;;22.30;27.80;;;;;;1546566;75;770;-65
2021/03/10 09:03:09;;;;;;;;;;;22.30;27.70;;;;;;1547014;75;726;-66
2021/03/10 09:05:12;;;;;;;;;;;22.20;27.70;;;;;;1542336;75;1809;-66
2021/03/10 09:07:16;;;;;;;;;;;22.20;27.80;;;;;;1546684;75;1148;-65
2021/03/10 09:09:18;;;;;;;;;;;22.20;27.50;;;;;;1546050;75;1827;-65
2021/03/10 09:11:20;;;;;;;;;;;22.20;27.30;;;;;;1545455;75;879;-65
2021/03/10 09:13:22;;;;;;;;;;;22.10;27.60;;;;;;1546335;75;656;-63
2021/03/10 09:15:28;;;;;;;;;;;22.10;27.80;;;;;;1548893;75;764;-65
2021/03/10 09:17:31;;;;;;;;;;;22.10;27.80;;;;;;1544803;75;1177;-61
2021/03/10 09:19:33;;;;;;;;;;;22.10;27.70;;;;;;1545749;75;1947;-64
2021/03/10 09:21:41;;;;;;;;;;;22.10;27.50;;;;;;1547272;75;736;-64
2021/03/10 09:23:43;;;;;;;;;;;22.00;27.60;;;;;;1546877;75;736;-64
2021/03/10 09:25:45;;;;;;;;;;;22.00;27.50;;;;;;1546864;75;817;-64
2021/03/10 09:27:47;;;;;;;;;;;21.90;27.60;;;;;;1546122;75;1160;-67
2021/03/10 09:29:50;;;;;;;;;;;21.90;27.50;;;;;;1547083;75;801;-64
2021/03/10 09:31:55;;;;;;;;;;;21.90;27.50;;;;;;1546950;75;728;-64
2021/03/10 09:34:04;;;;;;;;;;;21.90;27.60;;;;;;1546909;75;760;-65
2021/03/10 09:36:06;;;;;;;;;;;21.80;27.40;;;;;;1546835;77;765;-61
2021/03/10 09:38:09;;;;;;;;;;;21.80;27.30;;;;;;1545114;75;1172;-64
2021/03/10 09:40:12;;;;;;;;;;;21.90;27.50;;;;;;1544473;75;1925;-64
2021/03/10 09:42:14;;;;;;;;;;;21.70;27.40;;;;;;1547004;75;775;-64
2021/03/10 09:44:16;;;;;;;;;;;21.70;27.40;;;;;;1546916;75;757;-65
2021/03/10 09:46:18;;;;;;;;;;;21.70;27.30;;;;;;1546403;75;637;-67
2021/03/10 09:48:30;;;;;;;;;;;21.70;27.50;;;;;;1546948;75;1148;-66
2021/03/10 09:50:33;;;;;;;;;;;21.60;27.30;;;;;;1545494;75;971;-65
2021/03/10 09:52:38;;;;;;;;;;;21.60;27.40;;;;;;1547301;75;738;-62
2021/03/10 09:54:51;;;;;;;;;;;21.60;27.40;;;;;;1546550;75;855;-67
2021/03/10 09:56:53;;;;;;;;;;;21.60;27.30;;;;;;1543801;75;1179;-66
2021/03/10 09:58:56;;;;;;;;;;;21.50;27.40;;;;;;1543679;75;1919;-64
2021/03/10 10:00:59;;;;;;;;;;;21.50;27.50;;;;;;1545096;75;836;-67
2021/03/10 10:03:00;;;;;;;;;;;21.50;27.50;;;;;;1545413;75;745;-63
2021/03/10 10:05:03;;;;;;;;;;;21.50;27.50;;;;;;1548834;75;750;-68
2021/03/10 10:07:07;;;;;;;;;;;21.50;27.40;;;;;;1544164;75;1133;-64
2021/03/10 10:09:09;;;;;;;;;;;21.50;27.50;;;;;;1542672;76;1533;-65
2021/03/10 10:11:11;;;;;;;;;;;21.40;27.30;;;;;;1544717;75;754;-67
2021/03/10 10:13:15;;;;;;;;;;;21.40;27.30;;;;;;1543551;75;684;-64
2021/03/10 10:15:18;;;;;;;;;;;21.40;27.30;;;;;;1543947;75;1950;-65
2021/03/10 10:17:19;;;;;;;;;;;21.40;27.40;;;;;;1541622;75;1140;-66
2021/03/10 10:19:21;;;;;;;;;;;21.40;27.20;;;;;;1544859;75;1926;-77
2021/03/10 10:21:23;;;;;;;;;;;21.30;27.30;;;;;;1543818;75;747;-65
2021/03/10 10:23:25;;;;;;;;;;;21.30;27.40;;;;;;1544930;75;684;-64
2021/03/10 10:25:27;;;;;;;;;;;21.30;27.40;;;;;;1545650;75;823;-60
2021/03/10 10:27:29;;;;;;;;;;;21.20;27.50;;;;;;1543515;75;1185;-63
2021/03/10 10:29:31;;;;;;;;;;;21.20;27.40;;;;;;1541374;75;756;-64
2021/03/10 10:31:32;;;;;;;;;;;21.20;27.30;;;;;;1544089;75;798;-63
2021/03/10 10:33:34;;;;;;;;;;;21.20;27.40;;;;;;1541973;75;808;-64
2021/03/10 10:35:36;;;;;;;;;;;21.20;27.60;;;;;;1540564;75;735;-65
2021/03/10 10:52:37;;;;;;;;;;;21.00;28.50;;;;;;1569332;72;1380;-58
2021/03/10 10:54:39;;;;;;;;;;;21.00;27.80;;;;;;1546957;75;777;-60
2021/03/10 10:56:40;;;;;;;;;;;21.10;27.70;;;;;;1548508;75;794;-59
2021/03/10 10:58:42;;;;;;;;;;;21.00;27.70;;;;;;1549032;75;758;-52
2021/03/10 11:00:44;;;;;;;;;;;21.00;27.80;;;;;;1554776;75;1946;-57
2021/03/10 11:02:46;;;;;;;;;;;21.00;27.70;;;;;;1550719;75;1129;-55
2021/03/10 11:04:48;;;;;;;;;;;20.90;27.70;;;;;;1546156;75;783;-53
2021/03/10 11:06:50;;;;;;;;;;;21.00;27.60;;;;;;1550898;75;818;-57
2021/03/10 11:08:52;;;;;;;;;;;21.00;27.60;;;;;;1554488;75;771;-57
2021/03/10 11:10:54;;;;;;;;;;;21.00;27.60;;;;;;1549413;75;705;-57
2021/03/10 11:12:55;;;;;;;;;;;21.00;27.60;;;;;;1551636;75;1083;-57
2021/03/10 11:14:57;;;;;;;;;;;21.00;27.70;;;;;;1533199;75;825;-57
2021/03/10 11:16:59;;;;;;;;;;;21.00;27.70;;;;;;1554665;76;677;-55
2021/03/10 11:19:01;;;;;;;;;;;20.90;27.70;;;;;;1547059;75;697;-54
2021/03/10 11:21:03;;;;;;;;;;;20.90;27.80;;;;;;1548489;75;1940;-57
2021/03/10 11:23:05;;;;;;;;;;;20.90;27.70;;;;;;1552373;75;664;-57
2021/03/10 11:25:08;;;;;;;;;;;20.80;27.50;;;;;;1544442;75;767;-54
2021/03/10 11:27:09;;;;;;;;;;;20.90;27.60;;;;;;1552313;75;750;-55
2021/03/10 11:29:11;;;;;;;;;;;20.90;27.60;;;;;;1545584;75;616;-54
2021/03/10 11:31:13;;;;;;;;;;;20.90;27.60;;;;;;1556822;75;1170;-57
2021/03/10 11:33:15;;;;;;;;;;;20.80;27.50;;;;;;1551450;76;802;-58
2021/03/10 11:35:17;;;;;;;;;;;20.90;27.60;;;;;;1555930;75;868;-59
2021/03/10 11:37:19;;;;;;;;;;;20.90;27.60;;;;;;1551023;75;765;-59
2021/03/10 11:39:21;;;;;;;;;;;20.90;27.60;;;;;;1549148;76;776;-57
2021/03/10 11:41:23;;;;;;;;;;;20.80;27.50;;;;;;1546749;75;1939;-57
2021/03/10 11:43:25;;;;;;;;;;;20.80;27.40;;;;;;1546709;75;804;-57
2021/03/10 11:45:27;;;;;;;;;;;20.80;27.40;;;;;;1548956;76;744;-54
2021/03/10 11:47:29;;;;;;;;;;;20.80;27.50;;;;;;1556594;76;799;-54
2021/03/10 11:49:31;;;;;;;;;;;20.80;27.50;;;;;;1547484;75;746;-57
2021/03/10 11:51:33;;;;;;;;;;;20.80;27.50;;;;;;1547793;75;1152;-55
2021/03/10 11:53:34;;;;;;;;;;;20.70;27.50;;;;;;1556648;74;753;-57
2021/03/10 11:55:36;;;;;;;;;;;20.80;27.50;;;;;;1566591;74;731;-57
2021/03/10 11:57:38;;;;;;;;;;;20.80;27.50;;;;;;1567988;74;714;-57
2021/03/10 11:59:40;;;;;;;;;;;20.80;27.50;;;;;;1565345;74;737;-56
2021/03/10 12:01:43;;;;;;;;;;;20.70;27.40;;;;;;1572174;74;1995;-56
2021/03/10 12:03:45;;;;;;;;;;;20.80;27.50;;;;;;1571225;74;703;-57
2021/03/10 12:05:48;;;;;;;;;;;20.80;27.50;;;;;;1557387;74;831;-57
2021/03/10 12:07:51;;;;;;;;;;;20.70;27.40;;;;;;1570767;74;711;-54
2021/03/10 12:09:52;;;;;;;;;;;20.70;27.40;;;;;;1573088;74;737;-57
2021/03/10 12:11:54;;;;;;;;;;;20.70;27.30;;;;;;1568641;74;1101;-55
2021/03/10 12:13:56;;;;;;;;;;;20.60;27.10;;;;;;1570055;74;735;-54
2021/03/10 12:15:58;;;;;;;;;;;20.70;27.30;;;;;;1571147;74;805;-56
2021/03/10 12:18:00;;;;;;;;;;;20.70;27.40;;;;;;1576212;74;806;-57
2021/03/10 12:20:03;;;;;;;;;;;20.70;27.40;;;;;;1574002;74;804;-56
2021/03/10 12:22:06;;;;;;;;;;;20.70;27.40;;;;;;1575841;74;1950;-52
2021/03/10 12:24:09;;;;;;;;;;;20.60;27.30;;;;;;1566920;74;1110;-55
2021/03/10 12:26:11;;;;;;;;;;;20.70;27.60;;;;;;1574127;74;682;-54